sensor_id;sensor_type;location;lat;lon;timestamp;temperature;humidity
19174;DHT22;9719;49.322;8.536;2022-12-07T00:02:31;7.30;91.00
19174;DHT22;9719;49.322;8.536;2022-12-07T00:07:32;5.60;89.90
19174;DHT22;9719;49.322;8.536;2022-12-07T00:12:36;5.50;90.00
19174;DHT22;9719;49.322;8.536;2022-12-07T00:17:37;6.40;90.70
19174;DHT22;9719;49.322;8.536;2022-12-07T00:22:39;5.30;90.30
19174;DHT22;9719;49.322;8.536;2022-12-07T00:27:42;5.40;90.50
19174;DHT22;9719;49.322;8.536;2022-12-07T00:32:44;6.90;91.40
19174;DHT22;9719;49.322;8.536;2022-12-07T00:37:46;5.30;90.60
19174;DHT22;9719;49.322;8.536;2022-12-07T00:42:49;6.90;91.60
19174;DHT22;9719;49.322;8.536;2022-12-07T00:47:51;7.00;91.90
19174;DHT22;9719;49.322;8.536;2022-12-07T00:52:53;5.60;90.90
19174;DHT22;9719;49.322;8.536;2022-12-07T00:57:56;7.10;91.80
19174;DHT22;9719;49.322;8.536;2022-12-07T01:02:58;5.50;90.90
19174;DHT22;9719;49.322;8.536;2022-12-07T01:08:00;7.10;91.80
19174;DHT22;9719;49.322;8.536;2022-12-07T01:13:03;5.60;90.90
19174;DHT22;9719;49.322;8.536;2022-12-07T01:18:05;7.10;91.90
19174;DHT22;9719;49.322;8.536;2022-12-07T01:23:07;5.70;90.80
19174;DHT22;9719;49.322;8.536;2022-12-07T01:28:10;5.50;90.80
19174;DHT22;9719;49.322;8.536;2022-12-07T01:33:11;5.60;91.00
19174;DHT22;9719;49.322;8.536;2022-12-07T01:38:13;5.70;91.10
19174;DHT22;9719;49.322;8.536;2022-12-07T01:43:18;5.60;90.90
19174;DHT22;9719;49.322;8.536;2022-12-07T01:48:23;5.70;91.10
19174;DHT22;9719;49.322;8.536;2022-12-07T01:59:13;6.10;91.50
19174;DHT22;9719;49.322;8.536;2022-12-07T02:04:15;7.00;91.80
19174;DHT22;9719;49.322;8.536;2022-12-07T02:09:17;6.30;91.50
19174;DHT22;9719;49.322;8.536;2022-12-07T02:14:20;6.10;91.30
19174;DHT22;9719;49.322;8.536;2022-12-07T02:19:48;7.20;92.00
19174;DHT22;9719;49.322;8.536;2022-12-07T02:24:54;7.20;92.00
19174;DHT22;9719;49.322;8.536;2022-12-07T02:30:03;5.70;91.10
19174;DHT22;9719;49.322;8.536;2022-12-07T02:35:08;5.70;91.50
19174;DHT22;9719;49.322;8.536;2022-12-07T02:40:16;5.70;91.30
19174;DHT22;9719;49.322;8.536;2022-12-07T02:45:21;5.50;91.30
19174;DHT22;9719;49.322;8.536;2022-12-07T02:50:24;5.50;91.30
19174;DHT22;9719;49.322;8.536;2022-12-07T02:55:29;5.30;91.30
19174;DHT22;9719;49.322;8.536;2022-12-07T03:00:41;5.40;91.50
19174;DHT22;9719;49.322;8.536;2022-12-07T03:06:06;6.70;92.20
19174;DHT22;9719;49.322;8.536;2022-12-07T03:11:11;5.40;91.60
19174;DHT22;9719;49.322;8.536;2022-12-07T03:16:18;6.60;92.20
19174;DHT22;9719;49.322;8.536;2022-12-07T03:21:24;5.00;91.20
19174;DHT22;9719;49.322;8.536;2022-12-07T03:26:32;5.90;92.20
19174;DHT22;9719;49.322;8.536;2022-12-07T03:31:40;5.00;91.90
19174;DHT22;9719;49.322;8.536;2022-12-07T03:36:46;5.10;92.00
19174;DHT22;9719;49.322;8.536;2022-12-07T03:41:49;6.80;92.80
19174;DHT22;9719;49.322;8.536;2022-12-07T03:46:59;5.10;92.00
19174;DHT22;9719;49.322;8.536;2022-12-07T03:52:08;5.30;92.00
19174;DHT22;9719;49.322;8.536;2022-12-07T03:57:14;5.30;92.00
19174;DHT22;9719;49.322;8.536;2022-12-07T04:02:17;5.60;92.10
19174;DHT22;9719;49.322;8.536;2022-12-07T04:07:20;5.10;91.80
19174;DHT22;9719;49.322;8.536;2022-12-07T04:12:22;5.50;91.90
19174;DHT22;9719;49.322;8.536;2022-12-07T04:17:25;5.40;91.80
19174;DHT22;9719;49.322;8.536;2022-12-07T04:22:27;6.70;92.70
19174;DHT22;9719;49.322;8.536;2022-12-07T04:27:29;5.40;92.00
19174;DHT22;9719;49.322;8.536;2022-12-07T04:32:33;5.60;92.00
19174;DHT22;9719;49.322;8.536;2022-12-07T04:37:35;5.60;92.00
19174;DHT22;9719;49.322;8.536;2022-12-07T04:42:39;7.00;92.60
19174;DHT22;9719;49.322;8.536;2022-12-07T04:47:42;5.60;91.80
19174;DHT22;9719;49.322;8.536;2022-12-07T04:52:44;7.00;92.60
19174;DHT22;9719;49.322;8.536;2022-12-07T04:57:46;6.90;92.60
19174;DHT22;9719;49.322;8.536;2022-12-07T05:02:49;6.70;92.40
19174;DHT22;9719;49.322;8.536;2022-12-07T05:08:00;5.80;92.00
19174;DHT22;9719;49.322;8.536;2022-12-07T05:13:13;6.90;92.50
19174;DHT22;9719;49.322;8.536;2022-12-07T05:18:17;5.90;92.00
19174;DHT22;9719;49.322;8.536;2022-12-07T05:23:25;5.70;91.90
19174;DHT22;9719;49.322;8.536;2022-12-07T05:28:28;6.40;92.30
19174;DHT22;9719;49.322;8.536;2022-12-07T05:33:31;6.80;92.50
19174;DHT22;9719;49.322;8.536;2022-12-07T05:38:33;5.80;91.80
19174;DHT22;9719;49.322;8.536;2022-12-07T05:43:35;6.60;92.20
19174;DHT22;9719;49.322;8.536;2022-12-07T05:48:38;7.00;92.40
19174;DHT22;9719;49.322;8.536;2022-12-07T05:53:39;5.70;91.70
19174;DHT22;9719;49.322;8.536;2022-12-07T05:58:41;7.20;92.50
19174;DHT22;9719;49.322;8.536;2022-12-07T06:04:06;7.40;92.80
19174;DHT22;9719;49.322;8.536;2022-12-07T06:09:09;5.70;91.70
19174;DHT22;9719;49.322;8.536;2022-12-07T06:14:11;7.00;92.40
19174;DHT22;9719;49.322;8.536;2022-12-07T06:19:14;5.80;91.80
19174;DHT22;9719;49.322;8.536;2022-12-07T06:24:16;5.70;91.70
19174;DHT22;9719;49.322;8.536;2022-12-07T06:29:18;6.30;92.00
19174;DHT22;9719;49.322;8.536;2022-12-07T06:34:23;5.90;91.70
19174;DHT22;9719;49.322;8.536;2022-12-07T06:39:27;7.30;92.50
19174;DHT22;9719;49.322;8.536;2022-12-07T06:44:29;7.30;92.40
19174;DHT22;9719;49.322;8.536;2022-12-07T06:49:32;7.20;92.20
19174;DHT22;9719;49.322;8.536;2022-12-07T06:54:34;7.20;92.20
19174;DHT22;9719;49.322;8.536;2022-12-07T06:59:35;7.10;92.20
19174;DHT22;9719;49.322;8.536;2022-12-07T07:04:39;5.80;91.40
19174;DHT22;9719;49.322;8.536;2022-12-07T07:09:40;5.90;91.30
19174;DHT22;9719;49.322;8.536;2022-12-07T07:14:42;6.90;91.80
19174;DHT22;9719;49.322;8.536;2022-12-07T07:20:18;7.60;92.00
19174;DHT22;9719;49.322;8.536;2022-12-07T07:25:20;6.20;91.30
19174;DHT22;9719;49.322;8.536;2022-12-07T07:30:22;5.90;91.10
19174;DHT22;9719;49.322;8.536;2022-12-07T07:35:26;7.30;91.70
19174;DHT22;9719;49.322;8.536;2022-12-07T07:40:28;7.30;91.80
19174;DHT22;9719;49.322;8.536;2022-12-07T07:45:30;6.10;91.00
19174;DHT22;9719;49.322;8.536;2022-12-07T07:50:34;6.40;90.90
19174;DHT22;9719;49.322;8.536;2022-12-07T07:55:35;6.00;90.70
19174;DHT22;9719;49.322;8.536;2022-12-07T08:00:37;7.40;91.60
19174;DHT22;9719;49.322;8.536;2022-12-07T08:05:41;6.10;90.80
19174;DHT22;9719;49.322;8.536;2022-12-07T08:10:42;7.30;91.50
19174;DHT22;9719;49.322;8.536;2022-12-07T08:15:46;6.10;90.70
19174;DHT22;9719;49.322;8.536;2022-12-07T08:20:49;7.60;91.50
19174;DHT22;9719;49.322;8.536;2022-12-07T08:25:52;7.60;91.40
19174;DHT22;9719;49.322;8.536;2022-12-07T08:30:58;6.50;90.90
19174;DHT22;9719;49.322;8.536;2022-12-07T08:36:03;6.20;90.70
19174;DHT22;9719;49.322;8.536;2022-12-07T08:41:24;6.30;90.60
19174;DHT22;9719;49.322;8.536;2022-12-07T08:46:30;6.10;90.30
19174;DHT22;9719;49.322;8.536;2022-12-07T08:51:35;6.40;90.50
19174;DHT22;9719;49.322;8.536;2022-12-07T08:56:38;7.50;91.20
19174;DHT22;9719;49.322;8.536;2022-12-07T09:01:40;7.60;91.30
19174;DHT22;9719;49.322;8.536;2022-12-07T09:06:43;7.70;91.50
19174;DHT22;9719;49.322;8.536;2022-12-07T09:11:45;6.50;90.70
19174;DHT22;9719;49.322;8.536;2022-12-07T09:16:47;6.40;90.50
19174;DHT22;9719;49.322;8.536;2022-12-07T09:21:50;6.30;90.50
19174;DHT22;9719;49.322;8.536;2022-12-07T09:26:52;6.40;90.30
19174;DHT22;9719;49.322;8.536;2022-12-07T09:31:54;6.50;90.60
19174;DHT22;9719;49.322;8.536;2022-12-07T09:36:57;6.60;90.50
19174;DHT22;9719;49.322;8.536;2022-12-07T09:42:03;6.50;90.40
19174;DHT22;9719;49.322;8.536;2022-12-07T09:47:05;6.70;90.50
19174;DHT22;9719;49.322;8.536;2022-12-07T09:52:19;8.20;91.30
19174;DHT22;9719;49.322;8.536;2022-12-07T09:57:28;8.00;91.10
19174;DHT22;9719;49.322;8.536;2022-12-07T10:02:36;8.30;91.00
19174;DHT22;9719;49.322;8.536;2022-12-07T10:07:39;7.10;90.30
19174;DHT22;9719;49.322;8.536;2022-12-07T10:12:56;8.40;90.70
19174;DHT22;9719;49.322;8.536;2022-12-07T10:17:58;8.60;90.60
19174;DHT22;9719;49.322;8.536;2022-12-07T10:23:04;7.30;89.90
19174;DHT22;9719;49.322;8.536;2022-12-07T10:28:15;8.80;90.60
19174;DHT22;9719;49.322;8.536;2022-12-07T10:33:35;7.90;90.10
19174;DHT22;9719;49.322;8.536;2022-12-07T10:38:45;7.50;90.00
19174;DHT22;9719;49.322;8.536;2022-12-07T10:43:49;7.80;89.80
19174;DHT22;9719;49.322;8.536;2022-12-07T10:48:59;9.00;90.10
19174;DHT22;9719;49.322;8.536;2022-12-07T10:54:10;9.50;90.20
19174;DHT22;9719;49.322;8.536;2022-12-07T10:59:34;8.90;89.50
19174;DHT22;9719;49.322;8.536;2022-12-07T11:04:48;8.70;89.60
19174;DHT22;9719;49.322;8.536;2022-12-07T11:10:02;10.30;89.70
19174;DHT22;9719;49.322;8.536;2022-12-07T11:15:15;9.10;88.10
19174;DHT22;9719;49.322;8.536;2022-12-07T11:20:40;9.10;87.50
19174;DHT22;9719;49.322;8.536;2022-12-07T11:25:51;9.10;87.30
19174;DHT22;9719;49.322;8.536;2022-12-07T11:31:00;9.50;87.30
19174;DHT22;9719;49.322;8.536;2022-12-07T11:36:14;10.20;87.80
19174;DHT22;9719;49.322;8.536;2022-12-07T11:41:22;9.00;86.80
19174;DHT22;9719;49.322;8.536;2022-12-07T11:46:29;9.40;87.10
19174;DHT22;9719;49.322;8.536;2022-12-07T11:51:35;8.90;87.00
19174;DHT22;9719;49.322;8.536;2022-12-07T11:56:40;10.00;87.50
19174;DHT22;9719;49.322;8.536;2022-12-07T12:01:50;9.50;86.60
19174;DHT22;9719;49.322;8.536;2022-12-07T12:06:54;8.80;86.10
19174;DHT22;9719;49.322;8.536;2022-12-07T12:18:03;8.40;86.00
19174;DHT22;9719;49.322;8.536;2022-12-07T12:23:10;8.60;86.30
19174;DHT22;9719;49.322;8.536;2022-12-07T12:28:25;8.40;86.20
19174;DHT22;9719;49.322;8.536;2022-12-07T12:33:30;8.10;86.20
19174;DHT22;9719;49.322;8.536;2022-12-07T12:38:33;8.80;86.70
19174;DHT22;9719;49.322;8.536;2022-12-07T12:43:52;8.80;86.80
19174;DHT22;9719;49.322;8.536;2022-12-07T12:48:54;7.50;86.30
19174;DHT22;9719;49.322;8.536;2022-12-07T12:54:03;8.50;86.90
19174;DHT22;9719;49.322;8.536;2022-12-07T12:59:25;8.40;86.90
19174;DHT22;9719;49.322;8.536;2022-12-07T13:09:59;8.00;86.70
19174;DHT22;9719;49.322;8.536;2022-12-07T13:15:31;8.90;87.20
19174;DHT22;9719;49.322;8.536;2022-12-07T13:20:47;8.10;86.80
19174;DHT22;9719;49.322;8.536;2022-12-07T13:25:59;9.70;87.30
19174;DHT22;9719;49.322;8.536;2022-12-07T13:31:19;8.90;86.90
19174;DHT22;9719;49.322;8.536;2022-12-07T13:36:22;8.10;86.40
19174;DHT22;9719;49.322;8.536;2022-12-07T13:41:26;8.30;86.60
19174;DHT22;9719;49.322;8.536;2022-12-07T13:46:41;9.00;87.00
19174;DHT22;9719;49.322;8.536;2022-12-07T13:51:44;9.00;86.90
19174;DHT22;9719;49.322;8.536;2022-12-07T13:56:49;8.80;86.70
19174;DHT22;9719;49.322;8.536;2022-12-07T14:01:54;8.10;86.30
19174;DHT22;9719;49.322;8.536;2022-12-07T14:06:56;8.10;86.20
19174;DHT22;9719;49.322;8.536;2022-12-07T14:11:58;8.00;86.20
19174;DHT22;9719;49.322;8.536;2022-12-07T14:17:15;8.10;86.20
19174;DHT22;9719;49.322;8.536;2022-12-07T14:22:29;8.00;86.00
19174;DHT22;9719;49.322;8.536;2022-12-07T14:27:33;9.40;86.60
19174;DHT22;9719;49.322;8.536;2022-12-07T14:32:38;8.00;85.80
19174;DHT22;9719;49.322;8.536;2022-12-07T14:37:42;8.00;85.80
19174;DHT22;9719;49.322;8.536;2022-12-07T14:42:46;7.80;85.60
19174;DHT22;9719;49.322;8.536;2022-12-07T14:47:50;8.00;85.80
19174;DHT22;9719;49.322;8.536;2022-12-07T14:52:55;9.30;86.60
19174;DHT22;9719;49.322;8.536;2022-12-07T14:57:57;7.90;85.60
19174;DHT22;9719;49.322;8.536;2022-12-07T15:03:15;7.80;85.40
19174;DHT22;9719;49.322;8.536;2022-12-07T15:08:22;7.80;85.40
19174;DHT22;9719;49.322;8.536;2022-12-07T15:13:24;7.90;85.60
19174;DHT22;9719;49.322;8.536;2022-12-07T15:18:45;8.40;85.80
19174;DHT22;9719;49.322;8.536;2022-12-07T15:23:47;8.20;85.60
19174;DHT22;9719;49.322;8.536;2022-12-07T15:28:48;7.90;85.50
19174;DHT22;9719;49.322;8.536;2022-12-07T15:33:51;8.00;85.60
19174;DHT22;9719;49.322;8.536;2022-12-07T15:38:53;9.10;86.40
19174;DHT22;9719;49.322;8.536;2022-12-07T15:43:56;8.90;86.20
19174;DHT22;9719;49.322;8.536;2022-12-07T15:49:18;7.60;85.50
19174;DHT22;9719;49.322;8.536;2022-12-07T15:54:22;9.00;86.10
19174;DHT22;9719;49.322;8.536;2022-12-07T15:59:26;8.90;86.20
19174;DHT22;9719;49.322;8.536;2022-12-07T16:04:29;7.50;85.40
19174;DHT22;9719;49.322;8.536;2022-12-07T16:09:31;7.50;85.40
19174;DHT22;9719;49.322;8.536;2022-12-07T16:14:33;7.40;85.40
19174;DHT22;9719;49.322;8.536;2022-12-07T16:19:37;7.40;85.40
19174;DHT22;9719;49.322;8.536;2022-12-07T16:24:39;7.30;85.30
19174;DHT22;9719;49.322;8.536;2022-12-07T16:29:41;7.30;85.40
19174;DHT22;9719;49.322;8.536;2022-12-07T16:34:44;8.30;86.20
19174;DHT22;9719;49.322;8.536;2022-12-07T16:39:46;7.20;85.40
19174;DHT22;9719;49.322;8.536;2022-12-07T16:44:47;8.60;86.50
19174;DHT22;9719;49.322;8.536;2022-12-07T16:49:50;7.20;85.60
19174;DHT22;9719;49.322;8.536;2022-12-07T16:54:53;8.00;86.20
19174;DHT22;9719;49.322;8.536;2022-12-07T16:59:54;6.90;85.70
19174;DHT22;9719;49.322;8.536;2022-12-07T17:04:58;7.00;85.80
19174;DHT22;9719;49.322;8.536;2022-12-07T17:09:59;8.40;86.70
19174;DHT22;9719;49.322;8.536;2022-12-07T17:15:01;6.90;86.00
19174;DHT22;9719;49.322;8.536;2022-12-07T17:20:20;6.90;86.00
19174;DHT22;9719;49.322;8.536;2022-12-07T17:25:22;7.90;86.80
19174;DHT22;9719;49.322;8.536;2022-12-07T17:30:24;6.70;86.20
19174;DHT22;9719;49.322;8.536;2022-12-07T17:35:27;7.80;86.90
19174;DHT22;9719;49.322;8.536;2022-12-07T17:40:29;7.50;86.80
19174;DHT22;9719;49.322;8.536;2022-12-07T17:45:31;6.80;86.50
19174;DHT22;9719;49.322;8.536;2022-12-07T17:50:44;6.70;86.60
19174;DHT22;9719;49.322;8.536;2022-12-07T17:56:28;6.50;86.60
19174;DHT22;9719;49.322;8.536;2022-12-07T18:01:39;6.70;86.70
19174;DHT22;9719;49.322;8.536;2022-12-07T18:06:47;7.80;87.30
19174;DHT22;9719;49.322;8.536;2022-12-07T18:12:03;8.10;87.60
19174;DHT22;9719;49.322;8.536;2022-12-07T18:17:05;6.70;86.80
19174;DHT22;9719;49.322;8.536;2022-12-07T18:22:09;7.90;87.60
19174;DHT22;9719;49.322;8.536;2022-12-07T18:27:11;6.60;86.80
19174;DHT22;9719;49.322;8.536;2022-12-07T18:32:13;6.40;86.70
19174;DHT22;9719;49.322;8.536;2022-12-07T18:37:18;6.40;86.70
19174;DHT22;9719;49.322;8.536;2022-12-07T18:42:21;6.60;86.90
19174;DHT22;9719;49.322;8.536;2022-12-07T18:47:23;6.40;86.70
19174;DHT22;9719;49.322;8.536;2022-12-07T18:52:26;6.80;86.90
19174;DHT22;9719;49.322;8.536;2022-12-07T18:57:31;6.50;86.90
19174;DHT22;9719;49.322;8.536;2022-12-07T19:02:33;7.60;87.50
19174;DHT22;9719;49.322;8.536;2022-12-07T19:07:36;7.10;87.20
19174;DHT22;9719;49.322;8.536;2022-12-07T19:12:40;7.30;87.30
19174;DHT22;9719;49.322;8.536;2022-12-07T19:17:45;6.40;86.90
19174;DHT22;9719;49.322;8.536;2022-12-07T19:22:49;7.70;87.70
19174;DHT22;9719;49.322;8.536;2022-12-07T19:27:52;7.70;87.70
19174;DHT22;9719;49.322;8.536;2022-12-07T19:32:54;7.60;87.60
19174;DHT22;9719;49.322;8.536;2022-12-07T19:38:01;6.60;87.20
19174;DHT22;9719;49.322;8.536;2022-12-07T19:43:03;4.90;86.40
19174;DHT22;9719;49.322;8.536;2022-12-07T19:48:09;6.10;87.00
19174;DHT22;9719;49.322;8.536;2022-12-07T19:53:13;6.20;87.10
19174;DHT22;9719;49.322;8.536;2022-12-07T19:58:15;5.90;87.10
19174;DHT22;9719;49.322;8.536;2022-12-07T20:03:21;5.90;87.10
19174;DHT22;9719;49.322;8.536;2022-12-07T20:08:24;5.90;87.20
19174;DHT22;9719;49.322;8.536;2022-12-07T20:13:26;7.00;87.90
19174;DHT22;9719;49.322;8.536;2022-12-07T20:18:34;6.20;87.50
19174;DHT22;9719;49.322;8.536;2022-12-07T20:23:37;6.10;87.50
19174;DHT22;9719;49.322;8.536;2022-12-07T20:28:39;5.80;87.30
19174;DHT22;9719;49.322;8.536;2022-12-07T20:33:45;6.40;87.80
19174;DHT22;9719;49.322;8.536;2022-12-07T20:38:48;6.90;88.10
19174;DHT22;9719;49.322;8.536;2022-12-07T20:43:50;7.00;88.20
19174;DHT22;9719;49.322;8.536;2022-12-07T20:48:52;6.10;87.90
19174;DHT22;9719;49.322;8.536;2022-12-07T20:53:56;5.80;87.70
19174;DHT22;9719;49.322;8.536;2022-12-07T20:59:00;5.90;87.90
19174;DHT22;9719;49.322;8.536;2022-12-07T21:04:03;7.10;88.70
19174;DHT22;9719;49.322;8.536;2022-12-07T21:09:08;5.90;88.10
19174;DHT22;9719;49.322;8.536;2022-12-07T21:14:10;5.80;87.90
19174;DHT22;9719;49.322;8.536;2022-12-07T21:19:12;7.40;88.80
19174;DHT22;9719;49.322;8.536;2022-12-07T21:24:15;6.10;88.10
19174;DHT22;9719;49.322;8.536;2022-12-07T21:29:17;5.90;88.10
19174;DHT22;9719;49.322;8.536;2022-12-07T21:34:19;6.50;88.40
19174;DHT22;9719;49.322;8.536;2022-12-07T21:39:22;7.00;88.60
19174;DHT22;9719;49.322;8.536;2022-12-07T21:44:24;5.70;88.00
19174;DHT22;9719;49.322;8.536;2022-12-07T21:49:26;6.30;88.30
19174;DHT22;9719;49.322;8.536;2022-12-07T21:54:29;5.80;88.00
19174;DHT22;9719;49.322;8.536;2022-12-07T21:59:31;6.50;88.40
19174;DHT22;9719;49.322;8.536;2022-12-07T22:04:33;5.90;88.00
19174;DHT22;9719;49.322;8.536;2022-12-07T22:09:36;5.90;88.00
19174;DHT22;9719;49.322;8.536;2022-12-07T22:14:38;7.40;88.80
19174;DHT22;9719;49.322;8.536;2022-12-07T22:20:09;6.90;88.60
19174;DHT22;9719;49.322;8.536;2022-12-07T22:25:13;5.80;88.00
19174;DHT22;9719;49.322;8.536;2022-12-07T22:30:15;5.70;88.10
19174;DHT22;9719;49.322;8.536;2022-12-07T22:35:17;5.80;88.00
19174;DHT22;9719;49.322;8.536;2022-12-07T22:40:21;7.00;88.50
19174;DHT22;9719;49.322;8.536;2022-12-07T22:45:22;6.70;88.50
19174;DHT22;9719;49.322;8.536;2022-12-07T22:50:24;5.80;88.10
19174;DHT22;9719;49.322;8.536;2022-12-07T22:55:27;6.80;88.60
19174;DHT22;9719;49.322;8.536;2022-12-07T23:00:29;6.80;88.70
19174;DHT22;9719;49.322;8.536;2022-12-07T23:05:31;5.50;88.10
19174;DHT22;9719;49.322;8.536;2022-12-07T23:10:35;5.50;88.10
19174;DHT22;9719;49.322;8.536;2022-12-07T23:15:37;5.40;87.90
19174;DHT22;9719;49.322;8.536;2022-12-07T23:20:39;5.30;88.10
19174;DHT22;9719;49.322;8.536;2022-12-07T23:25:42;6.30;88.70
19174;DHT22;9719;49.322;8.536;2022-12-07T23:30:44;6.50;88.70
19174;DHT22;9719;49.322;8.536;2022-12-07T23:35:45;6.30;88.80
19174;DHT22;9719;49.322;8.536;2022-12-07T23:40:48;5.10;88.30
19174;DHT22;9719;49.322;8.536;2022-12-07T23:45:50;6.20;89.10
19174;DHT22;9719;49.322;8.536;2022-12-07T23:50:55;4.90;88.60
19174;DHT22;9719;49.322;8.536;2022-12-07T23:55:59;6.10;89.40
